createdAt,value
2019-01-17T04:17:08.294Z,3.43
2019-01-17T04:19:37.406Z,3.30
2019-01-17T04:22:06.465Z,3.70
2019-01-17T04:24:35.638Z,2.70
2019-01-17T04:27:04.881Z,4.23
2019-01-17T04:29:33.937Z,4.30
2019-01-17T04:32:02.958Z,3.97
2019-01-17T04:34:31.872Z,3.40
2019-01-17T04:37:00.857Z,3.10
2019-01-17T04:39:29.782Z,4.13
2019-01-17T04:41:58.851Z,3.70
2019-01-17T04:44:27.838Z,3.47
2019-01-17T04:46:56.935Z,3.83
2019-01-17T04:49:25.964Z,3.50
2019-01-17T04:51:54.948Z,4.30
2019-01-17T04:54:24.065Z,4.10
2019-01-17T04:56:53.110Z,4.30
2019-01-17T04:59:22.172Z,4.40
2019-01-17T05:01:51.232Z,3.30
2019-01-17T05:04:20.228Z,3.77
2019-01-17T05:06:49.301Z,4.10
2019-01-17T05:09:18.971Z,3.47
2019-01-17T05:11:48.154Z,3.37
2019-01-17T05:14:17.146Z,3.87
2019-01-17T05:16:46.259Z,3.73
2019-01-17T05:19:15.289Z,4.07
2019-01-17T05:21:44.264Z,3.60
2019-01-17T05:24:13.379Z,3.17
2019-01-17T05:26:42.456Z,3.80
2019-01-17T05:29:11.531Z,3.40
2019-01-17T05:31:40.603Z,3.47
2019-01-17T05:34:09.690Z,3.63
2019-01-17T05:36:38.677Z,3.57
2019-01-17T05:39:09.619Z,3.67
2019-01-17T05:41:38.684Z,3.33
2019-01-17T05:44:07.731Z,3.50
2019-01-17T05:46:36.816Z,3.30
2019-01-17T05:49:06.047Z,3.60
2019-01-17T05:51:35.167Z,3.17
2019-01-17T05:54:04.325Z,3.20
2019-01-17T05:56:33.394Z,3.10
2019-01-17T05:59:05.521Z,3.47
2019-01-17T06:01:34.667Z,3.43
2019-01-17T06:04:03.808Z,3.23
2019-01-17T06:06:33.136Z,4.00
2019-01-17T06:09:03.465Z,3.33
2019-01-17T06:11:32.450Z,3.60
2019-01-17T06:14:01.452Z,3.60
2019-01-17T06:16:30.942Z,3.13
2019-01-17T06:19:03.479Z,3.93
2019-01-17T06:21:32.545Z,3.80
2019-01-17T06:24:01.568Z,3.70
2019-01-17T06:26:30.551Z,3.90
2019-01-17T06:28:59.567Z,3.97
2019-01-17T06:31:28.967Z,3.77
2019-01-17T06:33:58.057Z,3.37
2019-01-17T06:36:27.051Z,3.50
2019-01-17T06:38:56.082Z,3.00
2019-01-17T06:41:25.286Z,3.27
2019-01-17T06:43:54.297Z,3.83
2019-01-17T06:46:23.375Z,3.00
2019-01-17T06:48:52.565Z,3.37
2019-01-17T06:51:21.619Z,4.13
2019-01-17T06:53:50.769Z,3.37
2019-01-17T06:56:19.859Z,4.00
2019-01-17T06:58:48.779Z,3.83
2019-01-17T07:01:17.793Z,4.37
2019-01-17T07:03:46.868Z,4.10
2019-01-17T07:06:16.006Z,3.43
2019-01-17T07:08:45.018Z,3.50
2019-01-17T07:11:14.017Z,4.40
2019-01-17T07:13:43.083Z,3.77
2019-01-17T07:16:12.001Z,3.93
2019-01-17T07:18:41.074Z,4.10
2019-01-17T07:21:10.142Z,3.67
2019-01-17T07:23:39.142Z,4.03
2019-01-17T07:26:08.139Z,4.10
2019-01-17T07:28:37.355Z,3.90
2019-01-17T07:31:06.543Z,4.00
2019-01-17T07:33:35.514Z,4.37
2019-01-17T07:36:04.870Z,4.00
2019-01-17T07:38:34.435Z,4.13
2019-01-17T07:41:03.428Z,3.30
2019-01-17T07:43:32.408Z,3.50
2019-01-17T07:46:01.466Z,3.77
2019-01-17T07:48:30.544Z,4.13
2019-01-17T07:50:59.620Z,4.00
2019-01-17T07:53:28.709Z,3.90
2019-01-17T07:55:57.711Z,4.07
2019-01-17T07:58:26.834Z,4.30
2019-01-17T08:00:55.933Z,4.83
2019-01-17T08:03:25.040Z,4.30
2019-01-17T08:05:54.496Z,4.03
2019-01-17T08:08:23.515Z,3.43
2019-01-17T08:10:52.573Z,3.77
2019-01-17T08:13:21.562Z,3.77
2019-01-17T08:15:50.556Z,3.30
2019-01-17T08:18:19.542Z,2.73
2019-01-17T08:20:48.606Z,4.43
2019-01-17T08:23:17.638Z,2.67
2019-01-17T08:25:46.694Z,3.27
2019-01-17T08:28:15.682Z,3.30
2019-01-17T08:30:44.718Z,3.20
2019-01-17T08:33:13.775Z,2.30
2019-01-17T08:35:42.830Z,2.73
2019-01-17T08:38:11.887Z,3.07
2019-01-17T08:40:40.799Z,2.83
2019-01-17T08:43:09.862Z,2.43
2019-01-17T08:45:38.891Z,2.57
2019-01-17T08:48:07.977Z,2.30
2019-01-17T08:50:37.014Z,2.17
2019-01-17T08:53:06.098Z,3.00
2019-01-17T08:55:35.162Z,2.33
2019-01-17T08:58:04.367Z,2.13
2019-01-17T09:00:33.391Z,2.70
2019-01-17T09:03:02.461Z,2.07
2019-01-17T09:05:31.526Z,2.70
2019-01-17T09:08:00.600Z,2.70
2019-01-17T09:10:30.836Z,2.60
2019-01-17T09:12:59.742Z,2.20
2019-01-17T09:15:31.100Z,2.17
2019-01-17T09:18:00.380Z,2.13
2019-01-17T09:20:29.528Z,2.13
2019-01-17T09:22:58.625Z,1.90
2019-01-17T09:25:27.907Z,2.00
2019-01-17T09:27:56.972Z,1.87
2019-01-17T09:30:26.070Z,1.93
2019-01-17T09:32:55.154Z,1.90
2019-01-17T09:35:24.150Z,1.60
2019-01-17T09:37:53.237Z,1.50
2019-01-17T09:40:22.411Z,2.23
2019-01-17T09:42:51.499Z,1.60
2019-01-17T09:45:20.494Z,1.33
2019-01-17T09:47:49.590Z,1.47
2019-01-17T09:50:20.608Z,1.20
2019-01-17T09:52:50.016Z,1.53
2019-01-17T09:55:19.152Z,1.40
2019-01-17T09:57:48.274Z,1.43
2019-01-17T10:00:20.003Z,1.40
2019-01-17T10:02:49.062Z,1.60
2019-01-17T10:05:18.123Z,1.73
2019-01-17T10:07:47.312Z,1.40
2019-01-17T10:10:17.499Z,1.27
2019-01-17T10:12:46.879Z,1.23
2019-01-17T10:15:21.983Z,1.70
2019-01-17T10:18:26.682Z,1.77
2019-01-17T10:21:39.911Z,1.60
2019-01-17T10:24:33.643Z,1.63
2019-01-17T10:27:48.478Z,1.10
2019-01-17T10:30:53.591Z,1.13
2019-01-17T10:33:53.635Z,1.63
2019-01-17T10:36:45.703Z,1.37
2019-01-17T10:39:37.086Z,1.57
2019-01-17T10:42:42.744Z,1.60
2019-01-17T10:45:47.046Z,1.20
2019-01-17T10:48:40.590Z,1.80
2019-01-17T10:51:57.068Z,1.50
2019-01-17T10:55:03.807Z,1.70
2019-01-17T10:57:46.094Z,1.27
2019-01-17T11:00:29.674Z,1.33
2019-01-17T11:03:15.633Z,1.30
2019-01-17T11:06:06.895Z,1.43
2019-01-17T11:08:57.992Z,1.67
2019-01-17T11:12:00.365Z,1.27
2019-01-17T11:14:58.308Z,1.60
2019-01-17T11:18:02.149Z,1.50
2019-01-17T11:20:59.141Z,1.67
2019-01-17T11:23:45.522Z,1.87
2019-01-17T11:26:42.922Z,1.70
2019-01-17T11:29:32.618Z,1.47
2019-01-17T11:33:07.098Z,1.80
2019-01-17T11:36:20.031Z,2.80
2019-01-17T11:39:12.655Z,1.73
2019-01-17T11:42:11.542Z,2.10
2019-01-17T11:45:15.890Z,2.00
2019-01-17T11:48:00.623Z,1.43
2019-01-17T11:51:13.379Z,1.40
2019-01-17T11:54:35.775Z,1.40
2019-01-17T11:57:58.254Z,1.83
2019-01-17T12:01:02.944Z,1.60
2019-01-17T12:03:45.682Z,1.80
2019-01-17T12:06:14.754Z,1.50
2019-01-17T12:08:43.822Z,2.10
2019-01-17T12:11:12.920Z,1.77
2019-01-17T12:13:41.849Z,1.97
2019-01-17T12:16:10.838Z,1.97
2019-01-17T12:18:39.930Z,2.07
2019-01-17T12:21:09.002Z,1.90
2019-01-17T12:23:37.975Z,2.30
2019-01-17T12:26:07.042Z,2.03
2019-01-17T12:28:36.056Z,2.37
2019-01-17T12:31:05.157Z,1.97
2019-01-17T12:33:34.171Z,2.57
2019-01-17T12:36:03.323Z,2.20
2019-01-17T12:38:32.306Z,2.23
2019-01-17T12:41:01.410Z,2.10
2019-01-17T12:43:30.456Z,2.50
2019-01-17T12:46:00.610Z,2.47
2019-01-17T12:48:29.615Z,2.07
2019-01-17T12:50:58.699Z,1.80
2019-01-17T12:53:27.679Z,1.73
2019-01-17T12:55:56.622Z,2.23
2019-01-17T12:58:25.718Z,1.73
2019-01-17T13:00:54.779Z,1.80
2019-01-17T13:03:23.787Z,2.00
2019-01-17T13:05:52.932Z,2.30
2019-01-17T13:08:21.952Z,1.43
2019-01-17T13:10:51.035Z,1.90
2019-01-17T13:13:20.078Z,2.30
2019-01-17T13:15:49.239Z,1.50
2019-01-17T13:18:18.228Z,2.00
2019-01-17T13:20:47.220Z,1.33
2019-01-17T13:23:16.742Z,1.93
2019-01-17T13:25:45.986Z,2.30
2019-01-17T13:28:15.094Z,1.83
2019-01-17T13:30:44.163Z,1.37
2019-01-17T13:33:13.453Z,2.33
2019-01-17T13:35:42.355Z,2.37
2019-01-17T13:38:11.532Z,1.67
2019-01-17T13:40:40.498Z,1.80
2019-01-17T13:43:09.546Z,1.90
2019-01-17T13:45:38.802Z,1.60
2019-01-17T13:48:10.185Z,2.10
2019-01-17T13:50:39.090Z,1.73
2019-01-17T13:53:08.283Z,2.00
2019-01-17T13:55:37.405Z,1.70
2019-01-17T13:58:06.449Z,1.27
2019-01-17T14:00:35.452Z,1.70
2019-01-17T14:03:04.598Z,1.23
2019-01-17T14:05:33.810Z,1.50
2019-01-17T14:08:02.770Z,1.67
2019-01-17T14:10:31.739Z,2.17
2019-01-17T14:13:00.823Z,1.23
2019-01-17T14:15:30.243Z,1.30
2019-01-17T14:17:59.395Z,1.60
2019-01-17T14:20:28.380Z,1.57
2019-01-17T14:22:57.519Z,1.33
2019-01-17T14:25:26.615Z,1.20
2019-01-17T14:27:55.677Z,1.30
2019-01-17T14:30:27.443Z,0.90
2019-01-17T14:32:56.466Z,1.20
2019-01-17T14:35:25.467Z,1.00
2019-01-17T14:37:54.610Z,1.10
2019-01-17T14:40:30.859Z,1.00
2019-01-17T14:42:59.788Z,0.80
2019-01-17T14:45:28.869Z,0.90
2019-01-17T14:47:57.884Z,1.10
2019-01-17T14:50:29.239Z,0.90
2019-01-17T14:52:58.378Z,0.80
2019-01-17T14:55:27.441Z,0.90
2019-01-17T14:57:56.507Z,0.70
2019-01-17T15:00:31.169Z,1.03
2019-01-17T15:03:00.509Z,1.27
2019-01-17T15:05:29.532Z,0.80
2019-01-17T15:07:58.606Z,0.90
2019-01-17T15:10:30.674Z,0.87
2019-01-17T15:12:59.720Z,0.90
2019-01-17T15:15:28.701Z,0.70
2019-01-17T15:17:57.879Z,0.70
2019-01-17T15:20:26.953Z,0.97
2019-01-17T15:22:58.767Z,0.90
2019-01-17T15:25:28.475Z,0.80
2019-01-17T15:27:57.443Z,1.03
2019-01-17T15:30:27.606Z,0.70
2019-01-17T15:32:57.470Z,0.80
2019-01-17T15:35:26.743Z,0.70
2019-01-17T15:37:55.761Z,0.90
2019-01-17T15:40:29.905Z,1.00
2019-01-17T15:42:59.607Z,0.77
2019-01-17T15:45:28.696Z,0.73
2019-01-17T15:47:57.630Z,0.93
2019-01-17T15:50:26.718Z,0.60
2019-01-17T15:52:55.718Z,0.90
2019-01-17T15:55:25.120Z,0.90
2019-01-17T15:57:54.185Z,0.90
2019-01-17T16:00:25.531Z,0.70
2019-01-17T16:02:54.622Z,0.53
2019-01-17T16:05:23.659Z,0.70
2019-01-17T16:07:52.717Z,0.77
2019-01-17T16:10:21.778Z,0.70
2019-01-17T16:12:50.842Z,0.67
2019-01-17T16:15:24.534Z,0.90
2019-01-17T16:17:53.659Z,0.80
2019-01-17T16:20:22.678Z,0.60
2019-01-17T16:22:51.987Z,0.63
2019-01-17T16:25:21.020Z,1.00
2019-01-17T16:27:53.288Z,0.83
2019-01-17T16:30:31.819Z,0.83
2019-01-17T16:33:00.727Z,0.90
2019-01-17T16:35:29.872Z,0.60
2019-01-17T16:37:58.956Z,0.90
2019-01-17T16:40:27.995Z,1.03
2019-01-17T16:42:57.196Z,1.17
2019-01-17T16:45:26.345Z,1.30
2019-01-17T16:47:55.349Z,0.70
2019-01-17T16:50:26.114Z,1.10
2019-01-17T16:52:55.306Z,1.03
2019-01-17T16:55:24.407Z,0.80
2019-01-17T16:57:53.853Z,1.10
2019-01-17T17:00:25.798Z,1.07
2019-01-17T17:02:54.926Z,0.70
2019-01-17T17:05:23.991Z,0.77
2019-01-17T17:07:53.145Z,1.40
2019-01-17T17:10:22.244Z,0.90
2019-01-17T17:12:51.384Z,1.40
2019-01-17T17:15:20.618Z,1.20
2019-01-17T17:17:49.793Z,1.00
2019-01-17T17:20:20.469Z,1.20
2019-01-17T17:22:49.637Z,1.10
2019-01-17T17:25:18.721Z,1.57
2019-01-17T17:27:55.299Z,0.87
2019-01-17T17:30:21.964Z,0.80
2019-01-17T17:32:50.951Z,1.10
2019-01-17T17:35:20.019Z,0.90
2019-01-17T17:37:49.202Z,1.20
2019-01-17T17:40:23.351Z,1.00
2019-01-17T17:42:52.412Z,0.60
2019-01-17T17:45:21.431Z,0.90
2019-01-17T17:47:50.555Z,1.00
2019-01-17T17:50:20.795Z,1.20
2019-01-17T17:52:50.149Z,1.37
2019-01-17T17:55:19.226Z,1.30
2019-01-17T17:57:48.324Z,1.17
2019-01-17T18:00:36.560Z,1.03
2019-01-17T18:03:05.734Z,1.00
2019-01-17T18:05:34.764Z,1.03
2019-01-17T18:08:03.755Z,0.90
2019-01-17T18:10:32.859Z,1.03
2019-01-17T18:13:01.783Z,1.50
2019-01-17T18:15:30.778Z,1.10
2019-01-17T18:17:59.750Z,1.00
2019-01-17T18:20:28.750Z,1.03
2019-01-17T18:22:57.779Z,1.07
2019-01-17T18:25:26.699Z,1.20
2019-01-17T18:27:55.691Z,1.00
2019-01-17T18:30:24.836Z,1.00
2019-01-17T18:32:55.074Z,1.40
2019-01-17T18:35:24.152Z,1.50
2019-01-17T18:37:53.320Z,0.73
2019-01-17T18:40:22.528Z,1.13
2019-01-17T18:42:51.545Z,1.17
2019-01-17T18:45:22.179Z,1.20
2019-01-17T18:47:51.567Z,1.03
2019-01-17T18:50:25.684Z,0.90
2019-01-17T18:52:54.757Z,1.23
2019-01-17T18:55:23.867Z,1.07
2019-01-17T18:57:52.999Z,1.43
2019-01-17T19:00:26.694Z,1.30
2019-01-17T19:02:55.864Z,1.20
2019-01-17T19:05:25.141Z,1.47
2019-01-17T19:07:54.453Z,1.10
2019-01-17T19:10:23.841Z,1.10
2019-01-17T19:12:52.946Z,1.30
2019-01-17T19:15:24.767Z,1.13
2019-01-17T19:17:53.997Z,1.30
2019-01-17T19:20:23.258Z,1.10
2019-01-17T19:22:52.523Z,1.17
2019-01-17T19:25:22.276Z,1.33
2019-01-17T19:27:51.815Z,1.30
2019-01-17T19:30:22.694Z,1.47
2019-01-17T19:32:51.836Z,1.37
2019-01-17T19:35:21.254Z,1.20
2019-01-17T19:37:50.455Z,1.07
2019-01-17T19:40:21.245Z,1.47
2019-01-17T19:42:50.413Z,1.20
2019-01-17T19:45:19.687Z,1.00
2019-01-17T19:47:48.778Z,1.20
2019-01-17T19:50:21.074Z,1.10
2019-01-17T19:52:50.275Z,1.47
2019-01-17T19:55:19.343Z,0.83
2019-01-17T19:57:49.031Z,0.70
2019-01-17T20:00:18.411Z,0.80
2019-01-17T20:02:47.479Z,1.50
2019-01-17T20:05:17.579Z,0.80
2019-01-17T20:07:47.564Z,1.80
2019-01-17T20:10:21.815Z,0.93
2019-01-17T20:12:51.801Z,2.00
2019-01-17T20:15:21.388Z,1.43
2019-01-17T20:17:50.611Z,1.13
2019-01-17T20:20:19.743Z,1.10
2019-01-17T20:22:48.934Z,0.90
2019-01-17T20:25:18.006Z,1.03
2019-01-17T20:27:47.122Z,0.70
2019-01-17T20:30:27.080Z,1.10
2019-01-17T20:32:58.165Z,1.40
2019-01-17T20:35:27.291Z,2.10
2019-01-17T20:37:56.550Z,1.13
2019-01-17T20:40:25.710Z,1.10
2019-01-17T20:42:54.986Z,1.17
2019-01-17T20:45:24.149Z,0.70
2019-01-17T20:47:53.649Z,0.90
2019-01-17T20:50:25.150Z,1.03
2019-01-17T20:52:55.142Z,0.80
2019-01-17T20:55:24.192Z,0.60
2019-01-17T20:57:53.583Z,0.90
2019-01-17T21:00:28.954Z,1.13
2019-01-17T21:02:58.085Z,0.83
2019-01-17T21:05:27.264Z,0.90
2019-01-17T21:07:56.655Z,0.90
2019-01-17T21:10:25.652Z,1.00
2019-01-17T21:12:54.719Z,0.90
2019-01-17T21:15:23.719Z,0.87
2019-01-17T21:17:52.707Z,0.80
2019-01-17T21:20:21.801Z,0.80
2019-01-17T21:22:50.807Z,1.23
2019-01-17T21:25:19.898Z,1.03
2019-01-17T21:27:49.014Z,1.37
2019-01-17T21:30:22.781Z,1.00
2019-01-17T21:32:52.049Z,1.00
2019-01-17T21:35:21.195Z,0.80
2019-01-17T21:37:50.275Z,1.57
2019-01-17T21:40:19.849Z,0.70
2019-01-17T21:42:48.932Z,0.90
2019-01-17T21:45:18.499Z,1.27
2019-01-17T21:47:47.664Z,1.20
2019-01-17T21:50:22.137Z,1.03
2019-01-17T21:52:51.733Z,0.90
2019-01-17T21:55:20.802Z,0.80
2019-01-17T21:57:49.915Z,1.10
2019-01-17T22:00:21.079Z,0.70
2019-01-17T22:02:50.239Z,0.90
2019-01-17T22:05:19.479Z,0.80
2019-01-17T22:07:48.824Z,0.97
2019-01-17T22:10:19.019Z,1.00
2019-01-17T22:12:48.203Z,0.80
2019-01-17T22:15:21.914Z,1.00
2019-01-17T22:17:50.899Z,0.80
2019-01-17T22:20:20.059Z,1.20
2019-01-17T22:22:49.179Z,1.40
2019-01-17T22:25:18.876Z,0.83
2019-01-17T22:27:49.095Z,0.60
2019-01-17T22:30:20.386Z,0.80
2019-01-17T22:32:49.505Z,0.93
2019-01-17T22:35:18.568Z,0.93
2019-01-17T22:37:47.646Z,1.10
2019-01-17T22:40:16.727Z,0.70
2019-01-17T22:42:45.825Z,0.93
2019-01-17T22:45:17.532Z,0.63
2019-01-17T22:47:46.535Z,0.97
2019-01-17T22:50:16.601Z,1.07
2019-01-17T22:52:45.833Z,0.73
2019-01-17T22:55:14.957Z,1.87
2019-01-17T22:57:43.992Z,0.70
